SE-0048 weather

Duvhed flygfält UL
Hallands län, Sweden

Public forecast

Using degrees Celsius for public forecast. Weather courtesy of forecast.io.

METAR (pilot weather report)

Closest report is Gothenburg-Landvetter Airport, 13.7 nm (25.3 km) NNE. Retrieved 2019/08/20 09:20 UTC (0 seconds ago):

ESGG 200920Z 22011KT 9999 FEW029 16/11 Q1017

TAF (pilot weather forecast)

Closest forecast is Gothenburg-Landvetter Airport, 13.7 nm (25.3 km) NNE. Retrieved 2019/08/20 06:35 UTC (3 hours ago):

TAF ESGG 200530Z 2006/2106 21009KT 9999 SCT025 BKN045 TEMPO 2009/2017 22015G25KT 4000 SHRA TS BKN025CB PROB40 2101/2106 4000 BR BKN007